createdAt,value
2023-05-12T00:02:13.246Z,5.60
2023-05-12T00:04:41.440Z,5.30
2023-05-12T00:07:09.662Z,5.30
2023-05-12T00:09:37.468Z,5.20
2023-05-12T00:12:05.647Z,5.70
2023-05-12T00:14:33.378Z,5.00
2023-05-12T00:17:01.250Z,5.30
2023-05-12T00:19:29.126Z,6.00
2023-05-12T00:21:57.117Z,4.90
2023-05-12T00:24:25.468Z,5.20
2023-05-12T00:26:54.169Z,5.20
2023-05-12T00:29:22.026Z,5.30
2023-05-12T00:31:49.917Z,5.00
2023-05-12T00:34:17.765Z,5.70
2023-05-12T00:36:45.649Z,5.20
2023-05-12T00:39:13.632Z,5.30
2023-05-12T00:41:41.784Z,5.10
2023-05-12T00:44:10.026Z,5.50
2023-05-12T00:46:39.326Z,5.40
2023-05-12T00:49:07.944Z,5.20
2023-05-12T00:51:36.173Z,5.10
2023-05-12T00:54:04.145Z,5.20
2023-05-12T00:56:39.326Z,5.50
2023-05-12T00:59:09.020Z,5.50
2023-05-12T01:01:40.744Z,5.30
2023-05-12T01:04:08.991Z,5.60
2023-05-12T01:07:19.825Z,5.50
2023-05-12T01:09:48.362Z,5.90
2023-05-12T01:12:16.394Z,5.00
2023-05-12T01:14:44.968Z,5.50
2023-05-12T01:17:14.099Z,5.60
2023-05-12T01:19:52.146Z,5.70
2023-05-12T01:22:20.768Z,5.30
2023-05-12T01:24:59.101Z,5.50
2023-05-12T01:27:29.925Z,5.20
2023-05-12T01:30:00.436Z,5.10
2023-05-12T01:32:30.646Z,5.10
2023-05-12T01:34:59.414Z,4.50
2023-05-12T01:37:27.473Z,4.30
2023-05-12T01:39:55.811Z,4.40
2023-05-12T01:42:23.688Z,3.90
2023-05-12T01:44:52.002Z,3.80
2023-05-12T01:47:21.654Z,4.00
2023-05-12T01:49:58.840Z,3.50
2023-05-12T01:52:28.083Z,3.70
2023-05-12T01:54:55.989Z,3.60
2023-05-12T01:57:24.337Z,4.10
2023-05-12T01:59:55.307Z,3.80
2023-05-12T02:02:23.392Z,4.20
2023-05-12T02:04:51.460Z,3.60
2023-05-12T02:07:19.369Z,3.70
2023-05-12T02:09:49.089Z,4.00
2023-05-12T02:12:17.779Z,3.80
2023-05-12T02:14:45.617Z,4.20
2023-05-12T02:17:14.061Z,4.00
2023-05-12T02:19:42.366Z,4.20
2023-05-12T02:22:11.487Z,3.60
2023-05-12T02:24:39.482Z,4.40
2023-05-12T02:27:08.396Z,3.90
2023-05-12T02:29:37.796Z,3.90
2023-05-12T02:32:08.036Z,4.20
2023-05-12T02:34:36.046Z,4.10
2023-05-12T02:37:04.199Z,3.80
2023-05-12T02:39:32.355Z,3.70
2023-05-12T02:42:00.927Z,4.00
2023-05-12T02:44:28.878Z,4.10
2023-05-12T02:46:58.083Z,3.70
2023-05-12T02:49:25.930Z,3.80
2023-05-12T02:51:55.457Z,4.30
2023-05-12T02:54:23.396Z,3.70
2023-05-12T02:56:51.557Z,4.00
2023-05-12T02:59:19.464Z,3.70
2023-05-12T03:01:47.414Z,3.70
2023-05-12T03:04:15.860Z,3.90
2023-05-12T03:06:43.787Z,3.50
2023-05-12T03:09:11.688Z,3.60
2023-05-12T03:11:39.527Z,3.50
2023-05-12T03:14:07.396Z,3.50
2023-05-12T03:16:35.556Z,3.80
2023-05-12T03:19:05.351Z,3.50
2023-05-12T03:21:33.619Z,3.50
2023-05-12T03:24:01.701Z,3.90
2023-05-12T03:26:29.674Z,3.90
2023-05-12T03:28:57.493Z,3.60
2023-05-12T03:31:26.128Z,3.60
2023-05-12T03:33:54.267Z,4.50
2023-05-12T03:36:23.953Z,3.90
2023-05-12T03:38:51.949Z,3.70
2023-05-12T03:41:20.013Z,3.40
2023-05-12T03:43:48.974Z,3.50
2023-05-12T03:46:16.933Z,3.60
2023-05-12T03:48:44.909Z,3.80
2023-05-12T03:51:13.091Z,4.20
2023-05-12T03:53:45.316Z,4.10
2023-05-12T03:56:15.685Z,3.70
2023-05-12T03:58:44.341Z,3.30
2023-05-12T04:01:12.192Z,3.50
2023-05-12T04:03:41.514Z,3.60
2023-05-12T04:06:10.052Z,4.10
2023-05-12T04:08:40.333Z,3.50
2023-05-12T04:11:10.698Z,4.50
2023-05-12T04:13:38.684Z,3.50
2023-05-12T04:16:06.763Z,3.60
2023-05-12T04:18:35.914Z,3.80
2023-05-12T04:21:03.916Z,3.40
2023-05-12T04:23:31.806Z,3.70
2023-05-12T04:25:59.814Z,3.20
2023-05-12T04:28:27.900Z,3.30
2023-05-12T04:30:55.870Z,3.70
2023-05-12T04:33:24.682Z,3.80
2023-05-12T04:35:57.125Z,4.80
2023-05-12T04:38:26.270Z,4.70
2023-05-12T04:40:58.912Z,3.80
2023-05-12T04:46:00.248Z,4.50
2023-05-12T04:48:31.956Z,4.00
2023-05-12T04:51:00.542Z,3.90
2023-05-12T04:53:28.547Z,3.70
2023-05-12T04:55:56.759Z,4.40
2023-05-12T04:58:25.589Z,4.00
2023-05-12T05:00:53.946Z,4.30
2023-05-12T05:03:22.693Z,4.50
2023-05-12T05:05:51.680Z,4.30
2023-05-12T05:08:19.660Z,4.50
2023-05-12T05:10:47.643Z,4.10
2023-05-12T05:13:16.492Z,3.60
2023-05-12T05:15:55.111Z,4.10
2023-05-12T05:18:24.869Z,4.10
2023-05-12T05:20:58.340Z,4.40
2023-05-12T05:23:27.513Z,4.60
2023-05-12T05:25:56.215Z,4.80
2023-05-12T05:28:24.461Z,4.80
2023-05-12T05:30:52.792Z,4.90
2023-05-12T05:33:21.348Z,5.20
2023-05-12T05:35:49.531Z,5.80
2023-05-12T05:38:17.943Z,5.30
2023-05-12T05:40:53.145Z,5.00
2023-05-12T05:43:23.623Z,4.90
2023-05-12T05:45:52.056Z,4.10
2023-05-12T05:48:21.966Z,4.60
2023-05-12T05:50:54.291Z,4.30
2023-05-12T05:53:23.733Z,4.10
2023-05-12T05:55:52.724Z,3.70
2023-05-12T05:58:20.633Z,3.80
2023-05-12T06:00:49.133Z,3.60
2023-05-12T06:03:17.073Z,3.20
2023-05-12T06:05:45.797Z,4.80
2023-05-12T06:08:14.016Z,3.30
2023-05-12T06:10:42.007Z,3.20
2023-05-12T06:13:10.262Z,3.60
2023-05-12T06:15:38.747Z,3.60
2023-05-12T06:18:06.627Z,3.20
2023-05-12T06:20:34.674Z,3.80
2023-05-12T06:23:02.801Z,3.60
2023-05-12T06:25:33.038Z,3.90
2023-05-12T06:28:02.031Z,3.50
2023-05-12T06:30:30.067Z,3.90
2023-05-12T06:32:58.059Z,3.70
2023-05-12T06:35:25.923Z,3.90
2023-05-12T06:37:53.902Z,3.60
2023-05-12T06:40:21.882Z,3.90
2023-05-12T06:42:50.200Z,4.20
2023-05-12T06:45:21.356Z,3.60
2023-05-12T06:47:50.474Z,3.50
2023-05-12T06:50:20.121Z,2.60
2023-05-12T06:52:52.284Z,2.40
2023-05-12T06:55:21.257Z,2.30
2023-05-12T06:57:51.777Z,2.60
2023-05-12T07:00:20.452Z,2.30
2023-05-12T07:02:48.400Z,2.40
2023-05-12T07:05:16.875Z,2.70
2023-05-12T07:07:45.726Z,2.20
2023-05-12T07:10:13.570Z,2.50
2023-05-12T07:12:41.845Z,2.70
2023-05-12T07:15:10.123Z,2.40
2023-05-12T07:17:38.014Z,2.40
2023-05-12T07:20:07.238Z,2.50
2023-05-12T07:22:37.934Z,2.50
2023-05-12T07:25:08.027Z,2.90
2023-05-12T07:27:35.963Z,3.10
2023-05-12T07:30:05.931Z,2.80
2023-05-12T07:32:34.445Z,3.00
2023-05-12T07:35:03.733Z,3.30
2023-05-12T07:37:32.229Z,2.90
2023-05-12T07:40:00.232Z,3.30
2023-05-12T07:42:28.071Z,5.10
2023-05-12T07:44:56.423Z,3.80
2023-05-12T07:47:24.337Z,3.20
2023-05-12T07:49:52.178Z,2.80
2023-05-12T07:52:20.118Z,3.00
2023-05-12T07:54:48.080Z,2.60
2023-05-12T07:57:16.748Z,2.60
2023-05-12T07:59:44.668Z,2.50
2023-05-12T08:02:13.036Z,2.80
2023-05-12T08:04:42.073Z,2.90
2023-05-12T08:07:11.858Z,2.80
2023-05-12T08:09:39.746Z,2.60
2023-05-12T08:12:07.796Z,2.70
2023-05-12T08:14:35.751Z,2.60
2023-05-12T08:17:05.190Z,2.70
2023-05-12T08:19:33.228Z,3.50
2023-05-12T08:22:02.110Z,3.20
2023-05-12T08:24:30.753Z,3.00
2023-05-12T08:26:58.622Z,2.90
2023-05-12T08:29:26.486Z,2.80
2023-05-12T08:31:54.577Z,3.10
2023-05-12T08:34:22.549Z,3.40
2023-05-12T08:36:52.673Z,3.10
2023-05-12T08:39:21.886Z,3.00
2023-05-12T08:42:02.636Z,3.10
2023-05-12T08:44:31.293Z,3.10
2023-05-12T08:47:01.690Z,3.50
2023-05-12T08:49:32.372Z,3.10
2023-05-12T08:52:02.452Z,3.20
2023-05-12T08:54:30.508Z,3.00
2023-05-12T08:59:31.532Z,3.80
2023-05-12T09:02:04.377Z,2.80
2023-05-12T09:04:33.293Z,2.90
2023-05-12T09:07:01.489Z,3.10
2023-05-12T09:09:32.822Z,3.10
2023-05-12T09:12:02.915Z,3.90
2023-05-12T09:14:35.920Z,3.90
2023-05-12T09:17:05.118Z,4.60
2023-05-12T09:19:34.406Z,4.30
2023-05-12T09:22:02.413Z,4.10
2023-05-12T09:24:38.006Z,3.80
2023-05-12T09:27:07.211Z,2.90
2023-05-12T09:29:45.118Z,3.20
2023-05-12T09:32:16.213Z,3.10
2023-05-12T09:34:44.709Z,3.60
2023-05-12T09:37:15.388Z,3.40
2023-05-12T09:39:44.313Z,3.00
2023-05-12T09:42:12.960Z,2.80
2023-05-12T09:44:41.463Z,3.00
2023-05-12T09:47:10.536Z,3.30
2023-05-12T09:49:38.809Z,2.90
2023-05-12T09:52:06.797Z,5.40
2023-05-12T09:54:34.802Z,4.40
2023-05-12T09:57:08.743Z,3.00
2023-05-12T09:59:40.023Z,3.00
2023-05-12T10:02:09.559Z,3.10
2023-05-12T10:04:48.201Z,2.70
2023-05-12T10:07:17.540Z,2.60
2023-05-12T10:09:45.853Z,2.60
2023-05-12T10:12:14.186Z,2.80
2023-05-12T10:14:43.543Z,2.80
2023-05-12T10:17:12.584Z,2.90
2023-05-12T10:19:41.973Z,2.90
2023-05-12T10:22:13.865Z,2.60
2023-05-12T10:24:41.887Z,2.70
2023-05-12T10:27:10.388Z,2.50
2023-05-12T10:29:39.722Z,2.80
2023-05-12T10:32:07.629Z,3.10
2023-05-12T10:34:43.469Z,3.10
2023-05-12T10:37:11.663Z,3.00
2023-05-12T10:39:52.920Z,2.70
2023-05-12T10:42:26.365Z,3.30
2023-05-12T10:44:56.587Z,3.00
2023-05-12T10:47:38.031Z,2.80
2023-05-12T10:50:07.289Z,2.60
2023-05-12T10:52:35.485Z,2.90
2023-05-12T10:55:04.547Z,3.20
2023-05-12T10:57:33.777Z,3.30
2023-05-12T11:00:04.100Z,3.50
2023-05-12T11:02:36.018Z,3.30
2023-05-12T11:05:13.171Z,3.50
2023-05-12T11:07:49.995Z,2.70
2023-05-12T11:10:19.642Z,2.90
2023-05-12T11:12:47.979Z,2.80
2023-05-12T11:15:18.093Z,3.30
2023-05-12T11:17:46.438Z,2.90
2023-05-12T11:20:26.741Z,2.70
2023-05-12T11:22:56.512Z,3.00
2023-05-12T11:25:28.332Z,3.10
2023-05-12T11:27:58.486Z,3.10
2023-05-12T11:30:27.046Z,2.80
2023-05-12T11:33:02.499Z,3.10
2023-05-12T11:35:32.614Z,3.20
2023-05-12T11:38:03.031Z,3.20
2023-05-12T11:40:31.014Z,3.90
2023-05-12T11:43:10.165Z,3.30
2023-05-12T11:45:38.272Z,2.90
2023-05-12T11:48:08.973Z,2.90
2023-05-12T11:53:15.024Z,3.40
2023-05-12T11:55:54.388Z,3.20
2023-05-12T11:58:27.243Z,3.10
2023-05-12T12:00:57.239Z,3.10
2023-05-12T12:03:25.636Z,3.50
2023-05-12T12:06:02.010Z,3.10
2023-05-12T12:08:31.007Z,3.10
2023-05-12T12:11:00.042Z,3.20
2023-05-12T12:13:30.027Z,3.00
2023-05-12T12:15:58.029Z,3.10
2023-05-12T12:18:27.630Z,3.80
2023-05-12T12:20:58.623Z,3.50
2023-05-12T12:23:26.404Z,3.20
2023-05-12T12:25:54.238Z,2.70
2023-05-12T12:28:22.187Z,3.10
2023-05-12T12:30:50.559Z,3.20
2023-05-12T12:33:20.488Z,3.80
2023-05-12T12:35:48.771Z,3.90
2023-05-12T12:38:16.730Z,3.60
2023-05-12T12:40:45.240Z,3.20
2023-05-12T12:43:13.093Z,3.10
2023-05-12T12:45:40.977Z,3.80
2023-05-12T12:48:09.281Z,3.20
2023-05-12T12:50:37.298Z,3.00
2023-05-12T12:53:06.197Z,3.80
2023-05-12T12:55:34.056Z,2.90
2023-05-12T12:58:01.877Z,2.90
2023-05-12T13:00:29.710Z,3.40
2023-05-12T13:02:59.297Z,3.00
2023-05-12T13:05:27.422Z,3.10
2023-05-12T13:07:56.067Z,3.30
2023-05-12T13:10:25.549Z,3.30
2023-05-12T13:12:53.798Z,2.90
2023-05-12T13:15:21.913Z,3.00
2023-05-12T13:17:50.032Z,3.20
2023-05-12T13:20:18.613Z,3.40
2023-05-12T13:22:46.719Z,3.20
2023-05-12T13:25:14.740Z,3.00
2023-05-12T13:27:42.553Z,3.40
2023-05-12T13:30:13.951Z,2.80
2023-05-12T13:32:42.438Z,3.00
2023-05-12T13:35:10.640Z,3.00
2023-05-12T13:37:40.172Z,2.80
2023-05-12T13:40:08.723Z,3.10
2023-05-12T13:42:39.740Z,2.90
2023-05-12T13:45:09.423Z,2.50
2023-05-12T13:47:37.989Z,2.90
2023-05-12T13:50:07.460Z,2.70
2023-05-12T13:52:35.835Z,2.50
2023-05-12T13:55:03.918Z,2.80
2023-05-12T13:57:31.794Z,3.00
2023-05-12T13:59:59.694Z,2.60
2023-05-12T14:02:27.830Z,3.60
2023-05-12T14:04:56.640Z,3.20
2023-05-12T14:07:25.558Z,3.30
2023-05-12T14:09:53.720Z,3.20
2023-05-12T14:12:22.209Z,3.10
2023-05-12T14:14:50.697Z,3.20
2023-05-12T14:17:18.725Z,2.90
2023-05-12T14:19:46.982Z,2.60
2023-05-12T14:22:25.282Z,3.10
2023-05-12T14:24:55.881Z,2.90
2023-05-12T14:27:24.134Z,2.70
2023-05-12T14:29:52.069Z,2.40
2023-05-12T14:32:19.846Z,2.70
2023-05-12T14:34:47.702Z,2.40
2023-05-12T14:37:15.565Z,2.70
2023-05-12T14:39:43.820Z,2.60
2023-05-12T14:42:11.925Z,4.40
2023-05-12T14:44:39.803Z,3.20
2023-05-12T14:47:09.255Z,3.10
2023-05-12T14:49:37.275Z,2.90
2023-05-12T14:52:05.674Z,2.80
2023-05-12T14:54:34.509Z,3.00
2023-05-12T14:57:03.687Z,3.70
2023-05-12T14:59:31.625Z,3.20
2023-05-12T15:01:59.611Z,3.80
2023-05-12T15:04:27.638Z,4.20
2023-05-12T15:06:55.494Z,4.50
2023-05-12T15:09:23.452Z,4.20
2023-05-12T15:11:51.692Z,4.50
2023-05-12T15:14:19.664Z,4.60
2023-05-12T15:16:47.606Z,4.40
2023-05-12T15:19:17.624Z,3.90
2023-05-12T15:21:45.750Z,3.70
2023-05-12T15:24:13.672Z,5.90
2023-05-12T15:26:41.456Z,6.70
2023-05-12T15:29:09.386Z,6.70
2023-05-12T15:31:37.450Z,6.40
2023-05-12T15:34:05.514Z,6.50
2023-05-12T15:36:34.010Z,5.30
2023-05-12T15:39:03.942Z,5.80
2023-05-12T15:41:31.876Z,5.70
2023-05-12T15:44:00.182Z,4.70
2023-05-12T15:46:28.728Z,5.00
2023-05-12T15:48:58.285Z,4.90
2023-05-12T15:51:26.117Z,4.50
2023-05-12T15:53:54.433Z,4.30
2023-05-12T15:56:23.129Z,4.60
2023-05-12T15:58:50.978Z,5.30
2023-05-12T16:01:18.972Z,5.10
2023-05-12T16:03:47.008Z,5.00
2023-05-12T16:06:15.084Z,4.70
2023-05-12T16:08:42.996Z,4.60
2023-05-12T16:11:12.553Z,4.90
2023-05-12T16:13:40.928Z,3.90
2023-05-12T16:16:08.964Z,3.70
2023-05-12T16:18:37.059Z,4.20
2023-05-12T16:21:05.389Z,4.50
2023-05-12T16:23:33.519Z,4.60
2023-05-12T16:26:01.411Z,4.10
2023-05-12T16:28:29.405Z,4.40
2023-05-12T16:30:57.991Z,4.70
2023-05-12T16:33:25.926Z,4.90
2023-05-12T16:35:54.173Z,4.80
2023-05-12T16:38:22.047Z,4.90
2023-05-12T16:40:50.276Z,5.10
2023-05-12T16:43:18.230Z,5.30
2023-05-12T16:45:46.481Z,6.00
2023-05-12T16:48:14.542Z,6.90
2023-05-12T16:50:42.461Z,6.70
2023-05-12T16:53:10.307Z,6.10
2023-05-12T16:55:38.246Z,5.40
2023-05-12T16:58:07.257Z,5.10
2023-05-12T17:00:35.012Z,4.70
2023-05-12T17:03:04.700Z,4.80
2023-05-12T17:05:33.343Z,5.50
2023-05-12T17:08:01.231Z,6.20
2023-05-12T17:10:29.419Z,6.20
2023-05-12T17:12:57.535Z,5.30
2023-05-12T17:15:25.534Z,6.50
2023-05-12T17:17:53.752Z,5.60
2023-05-12T17:20:22.101Z,6.10
2023-05-12T17:22:51.840Z,6.00
2023-05-12T17:25:20.989Z,8.30
2023-05-12T17:27:49.431Z,16.30
2023-05-12T17:30:18.773Z,18.80
2023-05-12T17:32:46.865Z,19.40
2023-05-12T17:35:15.012Z,20.10
2023-05-12T17:37:42.800Z,17.20
2023-05-12T17:40:16.233Z,11.70
2023-05-12T17:42:45.237Z,8.30
2023-05-12T17:45:15.980Z,7.10
2023-05-12T17:47:45.130Z,6.40
2023-05-12T17:50:15.066Z,5.90
2023-05-12T17:52:43.628Z,6.60
2023-05-12T17:55:11.440Z,6.80
2023-05-12T17:57:39.433Z,7.70
2023-05-12T18:00:10.493Z,7.90
2023-05-12T18:02:45.215Z,8.20
2023-05-12T18:05:13.657Z,8.40
2023-05-12T18:07:41.758Z,11.30
2023-05-12T18:10:11.211Z,16.70
2023-05-12T18:12:39.400Z,18.40
2023-05-12T18:15:08.588Z,21.40
2023-05-12T18:17:36.911Z,23.20
2023-05-12T18:20:06.759Z,29.20
2023-05-12T18:22:34.891Z,26.30
2023-05-12T18:25:02.885Z,26.30
2023-05-12T18:27:31.058Z,18.60
2023-05-12T18:29:58.918Z,13.10
2023-05-12T18:32:26.968Z,9.30
2023-05-12T18:34:55.064Z,8.20
2023-05-12T18:37:25.876Z,9.60
2023-05-12T18:39:54.438Z,8.70
2023-05-12T18:42:22.477Z,9.10
2023-05-12T18:44:52.498Z,10.80
2023-05-12T18:47:21.261Z,10.30
2023-05-12T18:49:49.362Z,11.00
2023-05-12T18:52:17.573Z,10.60
2023-05-12T18:54:47.482Z,9.40
2023-05-12T18:57:18.915Z,9.50
2023-05-12T18:59:46.850Z,9.00
2023-05-12T19:02:14.727Z,8.90
2023-05-12T19:04:42.892Z,8.20
2023-05-12T19:07:15.297Z,8.00
2023-05-12T19:09:46.168Z,8.10
2023-05-12T19:12:14.313Z,8.60
2023-05-12T19:14:43.353Z,8.40
2023-05-12T19:17:14.265Z,8.50
2023-05-12T19:19:42.539Z,9.20
2023-05-12T19:22:10.335Z,8.60
2023-05-12T19:24:38.265Z,8.10
2023-05-12T19:27:06.214Z,8.50
2023-05-12T19:29:34.120Z,8.30
2023-05-12T19:32:04.098Z,8.60
2023-05-12T19:34:32.668Z,8.20
2023-05-12T19:37:01.317Z,8.10
2023-05-12T19:39:29.777Z,8.30
2023-05-12T19:41:58.305Z,8.60
2023-05-12T19:44:30.188Z,8.40
2023-05-12T19:47:04.515Z,8.40
2023-05-12T19:49:40.404Z,8.20
2023-05-12T19:52:08.821Z,8.30
2023-05-12T19:54:39.754Z,8.80
2023-05-12T19:57:10.102Z,9.30
2023-05-12T19:59:38.388Z,9.50
2023-05-12T20:02:07.028Z,10.40
2023-05-12T20:04:35.046Z,10.20
2023-05-12T20:07:03.479Z,10.80
2023-05-12T20:09:31.435Z,10.40
2023-05-12T20:12:01.240Z,10.10
2023-05-12T20:14:29.182Z,9.40
2023-05-12T20:17:05.490Z,9.80
2023-05-12T20:19:33.781Z,8.60
2023-05-12T20:22:04.728Z,9.00
2023-05-12T20:24:32.913Z,8.80
2023-05-12T20:27:08.167Z,7.90
2023-05-12T20:29:36.158Z,9.00
2023-05-12T20:32:04.261Z,9.10
2023-05-12T20:34:32.089Z,8.50
2023-05-12T20:37:00.144Z,9.60
2023-05-12T20:39:29.052Z,9.60
2023-05-12T20:41:56.873Z,11.20
2023-05-12T20:44:26.484Z,11.70
2023-05-12T20:46:54.529Z,11.20
2023-05-12T20:49:22.683Z,11.40
2023-05-12T20:51:50.890Z,11.30
2023-05-12T20:54:18.727Z,11.50
2023-05-12T20:56:46.592Z,10.80
2023-05-12T20:59:14.485Z,10.30
2023-05-12T21:01:42.353Z,10.20
2023-05-12T21:04:10.381Z,9.00
2023-05-12T21:06:38.417Z,10.70
2023-05-12T21:09:06.213Z,9.30
2023-05-12T21:11:34.259Z,10.00
2023-05-12T21:14:02.281Z,10.60
2023-05-12T21:16:30.189Z,11.40
2023-05-12T21:18:58.202Z,9.80
2023-05-12T21:21:26.297Z,10.50
2023-05-12T21:23:54.293Z,9.80
2023-05-12T21:26:22.205Z,9.30
2023-05-12T21:28:50.124Z,8.70
2023-05-12T21:31:18.539Z,9.20
2023-05-12T21:33:46.803Z,9.20
2023-05-12T21:36:14.752Z,8.80
2023-05-12T21:38:42.735Z,9.60
2023-05-12T21:41:10.864Z,9.20
2023-05-12T21:43:38.753Z,9.10
2023-05-12T21:46:06.690Z,8.90
2023-05-12T21:48:34.444Z,8.50
2023-05-12T21:51:03.836Z,9.30
2023-05-12T21:53:31.772Z,9.90
2023-05-12T21:55:59.745Z,9.60
2023-05-12T21:58:28.318Z,9.20
2023-05-12T22:00:56.442Z,7.70
2023-05-12T22:03:25.388Z,7.70
2023-05-12T22:05:53.370Z,8.10
2023-05-12T22:08:21.239Z,8.00
2023-05-12T22:10:49.309Z,8.20
2023-05-12T22:13:17.107Z,7.90
2023-05-12T22:15:45.067Z,8.60
2023-05-12T22:18:13.196Z,8.40
2023-05-12T22:20:41.471Z,8.10
2023-05-12T22:23:09.258Z,8.70
2023-05-12T22:25:38.118Z,8.30
2023-05-12T22:28:07.259Z,8.40
2023-05-12T22:30:35.460Z,8.90
2023-05-12T22:33:03.450Z,8.40
2023-05-12T22:35:31.566Z,8.40
2023-05-12T22:37:59.585Z,8.30
2023-05-12T22:40:27.917Z,8.20
2023-05-12T22:42:55.698Z,8.10
2023-05-12T22:45:23.701Z,7.90
2023-05-12T22:47:51.530Z,8.50
2023-05-12T22:50:19.886Z,8.00
2023-05-12T22:52:48.056Z,7.70
2023-05-12T22:55:15.859Z,7.90
2023-05-12T22:57:46.157Z,7.40
2023-05-12T23:00:14.739Z,8.00
2023-05-12T23:02:42.635Z,8.00
2023-05-12T23:05:10.628Z,7.80
2023-05-12T23:07:38.566Z,8.20
2023-05-12T23:10:07.209Z,8.10
2023-05-12T23:12:35.209Z,8.00
2023-05-12T23:15:04.489Z,8.20
2023-05-12T23:17:32.657Z,7.80
2023-05-12T23:20:00.732Z,8.30
2023-05-12T23:22:28.486Z,8.80
2023-05-12T23:24:58.347Z,7.60
2023-05-12T23:27:26.760Z,8.80
2023-05-12T23:29:54.636Z,7.80
2023-05-12T23:32:22.567Z,8.50
2023-05-12T23:34:50.996Z,8.50
2023-05-12T23:37:21.671Z,8.90
2023-05-12T23:39:49.506Z,8.20
2023-05-12T23:42:17.442Z,8.20
2023-05-12T23:44:45.350Z,8.00
2023-05-12T23:47:13.282Z,8.20
2023-05-12T23:49:41.105Z,8.90
2023-05-12T23:52:08.963Z,8.10
2023-05-12T23:54:36.910Z,8.30
2023-05-12T23:57:05.056Z,8.40
2023-05-12T23:59:33.054Z,8.40
